• Join FlightAware (Why Join?)
  • Login
  • US Flag 
01:58PM EDT


 

Airport Tracker/Info


-or-


 

Live Flight TrackerFlight Track Log ✈ VNR109 ✈ 09-May-2013 ✈ KMCC - KMCC

Flight Track Log - Related Links

Times and Time Zones

All times are in EDT time to prevent confusion due to time zone crossing. See the VNR109 flight status page for this flight to view local times or setup timezone preferences in your user account.

Time Position Orientation Groundspeed Altitude Reporting Facility
EDT Latitude Longitude Course Direction KTS MPH feet Rate Location/Type
07:59PM 38.6167 -121.4000 180° South 180 207 2,100  Level Northern Cal TRACON
08:00PM 38.5667 -121.4000 180° South 186 214 4,000 1,920 Climbing Northern Cal TRACON
08:01PM 38.5333 -121.3500 130° Southeast 182 209 6,000 1,800 Climbing Northern Cal TRACON
08:01PM 38.5467 -121.3331 45° Northeast 178 205 6,700 1,680 Climbing Oakland Center
08:02PM 38.5711 -121.2742 62° Northeast 182 209 8,500 1,560 Climbing Oakland Center
08:03PM 38.5925 -121.1969 70° East 220 253 9,900 1,440 Climbing Oakland Center
08:05PM 38.6142 -121.1106 72° East 240 276 11,500 2,040 Climbing Oakland Center
08:06PM 38.6375 -121.0322 69° East 237 273 14,100 2,580 Climbing Oakland Center
08:07PM 38.6658 -120.9569 64° Northeast 203 234 16,800 2,040 Climbing Oakland Center
08:08PM 38.6853 -120.8844 71° East 211 243 18,400 1,020 Climbing Oakland Center
08:09PM 38.7356 -120.8342 38° Northeast 254 292 19,000 1,020 Climbing Oakland Center
08:10PM 38.8069 -120.8047 18° North 270 311 20,500 2,040 Climbing Oakland Center
08:11PM 38.8656 -120.8081 357° North 214 246 23,200 1,860 Climbing Oakland Center
08:12PM 38.9253 -120.8178 353° North 214 246 24,400 1,320 Climbing Oakland Center
08:13PM 38.9889 -120.8311 351° North 226 260 25,900 1,440 Climbing Oakland Center
08:14PM 39.0547 -120.8494 348° North 238 274 27,400 1,440 Climbing Oakland Center
08:15PM 39.1389 -120.8633 353° North 250 288 28,900 780 Climbing Oakland Center
08:16PM 39.2167 -120.8753 353° North 272 313 29,000 60 Climbing Oakland Center
08:17PM 39.3053 -120.8972 349° North 313 360 29,100  Climbing Oakland Center
08:18PM 39.3967 -120.9206 349° North 330 380 29,100 300 Level Oakland Center
08:19PM 39.4900 -120.9444 349° North 339 390 29,800 1,320 Climbing Oakland Center
08:20PM 39.5714 -120.9536 355° North 302 348 31,900 1,020 Climbing Oakland Center
08:21PM 39.6506 -120.9683 352° North 287 330 32,000  Climbing Oakland Center
08:22PM 39.7356 -120.9967 346° North 308 354 32,000  Level Oakland Center
08:23PM 39.8292 -121.0153 351° North 331 381 32,100 -60 Climbing Oakland Center
08:24PM 39.9189 -121.0858 329° Northwest 349 402 31,900 -840 Descending Oakland Center
08:25PM 39.8956 -121.1917 254° West 349 402 30,400 -2,040 Descending Oakland Center
08:26PM 39.8208 -121.2514 212° Southwest 331 381 27,800 -2,820 Descending Oakland Center
08:27PM 39.7286 -121.2544 181° South 335 386 24,700 -2,940 Descending Oakland Center
08:28PM 39.6414 -121.2647 185° South 320 368 21,800 -3,120 Descending Oakland Center
08:29PM 39.5553 -121.2781 187° South 313 360 18,400 -3,000 Descending Oakland Center
08:30PM 39.4561 -121.2897 185° South 332 382 15,700 -2,400 Descending Oakland Center
08:31PM 39.3664 -121.3025 186° South 327 376 13,500 -1,980 Descending Oakland Center
08:32PM 39.2831 -121.3172 188° South 309 356 11,700 -2,040 Descending Oakland Center
08:33PM 39.1856 -121.3283 185° South 293 337 9,400 -2,100 Descending Oakland Center
08:34PM 39.1044 -121.3383 185° South 293 337 7,500 -1,920 Descending Oakland Center
08:34PM 39.0833 -121.3500 203° Southwest 289 333 6,900 -1,680 Descending Northern Cal TRACON
08:36PM 38.9833 -121.3500 180° South 285 328 5,200 -1,500 Descending Northern Cal TRACON
08:36PM 38.9167 -121.3667 191° South 286 329 4,000 -1,140 Descending Northern Cal TRACON
08:37PM 38.8500 -121.3833 191° South 244 281 3,100 -960 Descending Northern Cal TRACON
08:38PM 38.8000 -121.4000 195° South 210 242 2,100 -1,020 Descending Northern Cal TRACON